sensor_id;sensor_type;location;lat;lon;timestamp;pressure;altitude;pressure_sealevel;temperature;humidity
62057;BME280;48016;50.284;18.860;2023-03-07T00:01:43;96837.34;;;0.84;77.27
62057;BME280;48016;50.284;18.860;2023-03-07T00:04:10;96837.20;;;0.85;77.48
62057;BME280;48016;50.284;18.860;2023-03-07T00:06:37;96835.21;;;0.87;77.31
62057;BME280;48016;50.284;18.860;2023-03-07T00:09:03;96830.54;;;0.87;77.26
62057;BME280;48016;50.284;18.860;2023-03-07T00:11:30;96833.16;;;0.90;77.37
62057;BME280;48016;50.284;18.860;2023-03-07T00:13:56;96831.48;;;0.93;77.18
62057;BME280;48016;50.284;18.860;2023-03-07T00:16:23;96832.39;;;0.96;77.14
62057;BME280;48016;50.284;18.860;2023-03-07T00:18:51;96832.69;;;0.97;77.16
62057;BME280;48016;50.284;18.860;2023-03-07T00:21:19;96830.09;;;0.98;77.17
62057;BME280;48016;50.284;18.860;2023-03-07T00:23:48;96828.33;;;0.97;77.16
62057;BME280;48016;50.284;18.860;2023-03-07T00:26:20;96826.19;;;0.99;77.08
62057;BME280;48016;50.284;18.860;2023-03-07T00:28:49;96827.81;;;1.00;77.16
62057;BME280;48016;50.284;18.860;2023-03-07T00:31:17;96824.83;;;1.00;77.14
62057;BME280;48016;50.284;18.860;2023-03-07T00:33:44;96824.66;;;1.02;77.29
62057;BME280;48016;50.284;18.860;2023-03-07T00:36:19;96820.37;;;1.04;77.24
62057;BME280;48016;50.284;18.860;2023-03-07T00:38:46;96824.07;;;1.08;77.26
62057;BME280;48016;50.284;18.860;2023-03-07T00:41:16;96824.58;;;1.09;77.03
62057;BME280;48016;50.284;18.860;2023-03-07T00:43:43;96819.93;;;1.11;77.20
62057;BME280;48016;50.284;18.860;2023-03-07T00:46:16;96817.20;;;1.15;77.18
62057;BME280;48016;50.284;18.860;2023-03-07T00:48:43;96817.14;;;1.17;77.04
62057;BME280;48016;50.284;18.860;2023-03-07T00:51:12;96815.91;;;1.21;77.01
62057;BME280;48016;50.284;18.860;2023-03-07T00:53:39;96814.48;;;1.25;76.94
62057;BME280;48016;50.284;18.860;2023-03-07T00:56:18;96812.60;;;1.25;76.69
62057;BME280;48016;50.284;18.860;2023-03-07T00:58:45;96810.27;;;1.24;76.88
62057;BME280;48016;50.284;18.860;2023-03-07T01:01:15;96807.55;;;1.26;76.79
62057;BME280;48016;50.284;18.860;2023-03-07T01:03:42;96807.15;;;1.27;76.86
62057;BME280;48016;50.284;18.860;2023-03-07T01:06:13;96803.23;;;1.30;76.78
62057;BME280;48016;50.284;18.860;2023-03-07T01:08:41;96800.73;;;1.31;76.64
62057;BME280;48016;50.284;18.860;2023-03-07T01:11:08;96803.08;;;1.33;76.60
62057;BME280;48016;50.284;18.860;2023-03-07T01:13:36;96798.85;;;1.35;76.62
62057;BME280;48016;50.284;18.860;2023-03-07T01:16:08;96798.06;;;1.35;76.52
62057;BME280;48016;50.284;18.860;2023-03-07T01:18:35;96793.23;;;1.39;76.58
62057;BME280;48016;50.284;18.860;2023-03-07T01:21:16;96793.27;;;1.42;76.60
62057;BME280;48016;50.284;18.860;2023-03-07T01:23:44;96794.34;;;1.43;76.46
62057;BME280;48016;50.284;18.860;2023-03-07T01:26:17;96794.29;;;1.43;76.49
62057;BME280;48016;50.284;18.860;2023-03-07T01:28:45;96792.06;;;1.44;76.36
62057;BME280;48016;50.284;18.860;2023-03-07T01:31:12;96787.18;;;1.42;76.24
62057;BME280;48016;50.284;18.860;2023-03-07T01:33:39;96783.15;;;1.41;76.31
62057;BME280;48016;50.284;18.860;2023-03-07T01:36:15;96779.37;;;1.41;76.36
62057;BME280;48016;50.284;18.860;2023-03-07T01:38:42;96778.70;;;1.42;76.27
62057;BME280;48016;50.284;18.860;2023-03-07T01:41:09;96777.91;;;1.42;76.18
62057;BME280;48016;50.284;18.860;2023-03-07T01:43:36;96777.61;;;1.41;76.20
62057;BME280;48016;50.284;18.860;2023-03-07T01:48:46;96775.72;;;1.41;76.20
62057;BME280;48016;50.284;18.860;2023-03-07T01:51:14;96768.70;;;1.42;76.27
62057;BME280;48016;50.284;18.860;2023-03-07T01:53:41;96769.66;;;1.42;76.01
62057;BME280;48016;50.284;18.860;2023-03-07T01:56:09;96768.11;;;1.41;76.10
62057;BME280;48016;50.284;18.860;2023-03-07T01:58:37;96767.48;;;1.40;75.98
62057;BME280;48016;50.284;18.860;2023-03-07T02:01:06;96762.52;;;1.38;76.01
62057;BME280;48016;50.284;18.860;2023-03-07T02:06:08;96759.54;;;1.34;75.94
62057;BME280;48016;50.284;18.860;2023-03-07T02:08:36;96760.77;;;1.32;75.91
62057;BME280;48016;50.284;18.860;2023-03-07T02:11:05;96759.60;;;1.29;75.95
62057;BME280;48016;50.284;18.860;2023-03-07T02:13:32;96756.15;;;1.30;75.98
62057;BME280;48016;50.284;18.860;2023-03-07T02:15:59;96754.33;;;1.29;75.89
62057;BME280;48016;50.284;18.860;2023-03-07T02:18:30;96754.67;;;1.28;75.88
62057;BME280;48016;50.284;18.860;2023-03-07T02:21:29;96753.48;;;1.25;75.96
62057;BME280;48016;50.284;18.860;2023-03-07T02:29:02;96757.66;;;1.24;76.06
62057;BME280;48016;50.284;18.860;2023-03-07T02:31:28;96756.96;;;1.24;76.21
62057;BME280;48016;50.284;18.860;2023-03-07T02:33:55;96752.16;;;1.23;76.30
62057;BME280;48016;50.284;18.860;2023-03-07T02:36:25;96750.64;;;1.24;76.32
62057;BME280;48016;50.284;18.860;2023-03-07T02:38:55;96749.45;;;1.24;76.27
62057;BME280;48016;50.284;18.860;2023-03-07T02:41:26;96747.52;;;1.25;76.41
62057;BME280;48016;50.284;18.860;2023-03-07T02:43:54;96746.63;;;1.26;76.44
62057;BME280;48016;50.284;18.860;2023-03-07T02:46:20;96748.76;;;1.31;76.34
62057;BME280;48016;50.284;18.860;2023-03-07T02:48:47;96745.67;;;1.33;76.41
62057;BME280;48016;50.284;18.860;2023-03-07T02:51:14;96744.73;;;1.34;76.32
62057;BME280;48016;50.284;18.860;2023-03-07T02:53:41;96743.29;;;1.34;76.30
62057;BME280;48016;50.284;18.860;2023-03-07T02:56:07;96742.23;;;1.34;76.28
62057;BME280;48016;50.284;18.860;2023-03-07T02:58:34;96743.24;;;1.34;76.26
62057;BME280;48016;50.284;18.860;2023-03-07T03:01:00;96743.14;;;1.35;76.19
62057;BME280;48016;50.284;18.860;2023-03-07T03:03:27;96744.62;;;1.36;76.23
62057;BME280;48016;50.284;18.860;2023-03-07T03:05:54;96745.38;;;1.37;76.21
62057;BME280;48016;50.284;18.860;2023-03-07T03:08:20;96747.59;;;1.39;76.18
62057;BME280;48016;50.284;18.860;2023-03-07T03:10:56;96749.89;;;1.40;76.01
62057;BME280;48016;50.284;18.860;2023-03-07T03:13:22;96750.48;;;1.40;76.12
62057;BME280;48016;50.284;18.860;2023-03-07T03:15:54;96748.19;;;1.40;76.12
62057;BME280;48016;50.284;18.860;2023-03-07T03:18:23;96749.42;;;1.40;76.14
62057;BME280;48016;50.284;18.860;2023-03-07T03:20:49;96749.34;;;1.39;75.94
62057;BME280;48016;50.284;18.860;2023-03-07T03:23:16;96751.52;;;1.39;76.06
62057;BME280;48016;50.284;18.860;2023-03-07T03:25:43;96752.89;;;1.40;76.04
62057;BME280;48016;50.284;18.860;2023-03-07T03:28:10;96755.18;;;1.42;75.97
62057;BME280;48016;50.284;18.860;2023-03-07T03:30:38;96755.47;;;1.44;75.91
62057;BME280;48016;50.284;18.860;2023-03-07T03:33:05;96754.53;;;1.44;75.92
62057;BME280;48016;50.284;18.860;2023-03-07T03:35:32;96753.09;;;1.45;75.85
62057;BME280;48016;50.284;18.860;2023-03-07T03:37:58;96756.45;;;1.42;75.86
62057;BME280;48016;50.284;18.860;2023-03-07T03:40:25;96755.39;;;1.42;75.97
62057;BME280;48016;50.284;18.860;2023-03-07T03:42:52;96755.45;;;1.43;75.96
62057;BME280;48016;50.284;18.860;2023-03-07T03:45:18;96754.98;;;1.43;76.01
62057;BME280;48016;50.284;18.860;2023-03-07T03:47:45;96756.57;;;1.43;75.98
62057;BME280;48016;50.284;18.860;2023-03-07T03:50:13;96754.21;;;1.42;76.21
62057;BME280;48016;50.284;18.860;2023-03-07T03:52:40;96758.05;;;1.40;76.02
62057;BME280;48016;50.284;18.860;2023-03-07T03:55:07;96752.36;;;1.37;76.11
62057;BME280;48016;50.284;18.860;2023-03-07T03:57:33;96754.98;;;1.35;76.22
62057;BME280;48016;50.284;18.860;2023-03-07T04:00:00;96753.48;;;1.34;76.26
62057;BME280;48016;50.284;18.860;2023-03-07T04:02:27;96749.79;;;1.34;76.45
62057;BME280;48016;50.284;18.860;2023-03-07T04:04:55;96753.49;;;1.33;76.34
62057;BME280;48016;50.284;18.860;2023-03-07T04:07:22;96754.69;;;1.31;76.41
62057;BME280;48016;50.284;18.860;2023-03-07T04:09:50;96758.73;;;1.31;76.46
62057;BME280;48016;50.284;18.860;2023-03-07T04:12:16;96759.69;;;1.31;76.49
62057;BME280;48016;50.284;18.860;2023-03-07T04:14:43;96759.21;;;1.32;76.52
62057;BME280;48016;50.284;18.860;2023-03-07T04:17:10;96761.63;;;1.32;76.52
62057;BME280;48016;50.284;18.860;2023-03-07T04:19:37;96762.14;;;1.33;76.65
62057;BME280;48016;50.284;18.860;2023-03-07T04:22:03;96762.73;;;1.34;76.51
62057;BME280;48016;50.284;18.860;2023-03-07T04:24:30;96761.45;;;1.36;76.50
62057;BME280;48016;50.284;18.860;2023-03-07T04:26:57;96762.54;;;1.38;76.70
62057;BME280;48016;50.284;18.860;2023-03-07T04:29:23;96756.99;;;1.40;76.53
62057;BME280;48016;50.284;18.860;2023-03-07T04:31:50;96758.64;;;1.41;76.57
62057;BME280;48016;50.284;18.860;2023-03-07T04:34:16;96756.78;;;1.43;76.51
62057;BME280;48016;50.284;18.860;2023-03-07T04:36:43;96755.91;;;1.42;76.29
62057;BME280;48016;50.284;18.860;2023-03-07T04:39:10;96752.20;;;1.40;76.24
62057;BME280;48016;50.284;18.860;2023-03-07T04:41:36;96749.95;;;1.37;76.12
62057;BME280;48016;50.284;18.860;2023-03-07T04:44:03;96749.77;;;1.33;75.93
62057;BME280;48016;50.284;18.860;2023-03-07T04:46:30;96749.23;;;1.28;75.75
62057;BME280;48016;50.284;18.860;2023-03-07T04:48:56;96751.52;;;1.21;75.62
62057;BME280;48016;50.284;18.860;2023-03-07T04:51:23;96752.34;;;1.14;75.63
62057;BME280;48016;50.284;18.860;2023-03-07T04:53:50;96746.54;;;1.09;75.58
62057;BME280;48016;50.284;18.860;2023-03-07T04:56:16;96744.00;;;1.03;75.65
62057;BME280;48016;50.284;18.860;2023-03-07T04:58:43;96742.69;;;0.99;75.72
62057;BME280;48016;50.284;18.860;2023-03-07T05:01:10;96740.48;;;0.94;75.70
62057;BME280;48016;50.284;18.860;2023-03-07T05:03:37;96741.26;;;0.87;75.61
62057;BME280;48016;50.284;18.860;2023-03-07T05:06:06;96740.15;;;0.83;75.79
62057;BME280;48016;50.284;18.860;2023-03-07T05:08:33;96736.98;;;0.80;75.77
62057;BME280;48016;50.284;18.860;2023-03-07T05:11:00;96735.14;;;0.72;75.70
62057;BME280;48016;50.284;18.860;2023-03-07T05:13:27;96732.13;;;0.66;75.85
62057;BME280;48016;50.284;18.860;2023-03-07T05:15:56;96730.00;;;0.61;75.84
62057;BME280;48016;50.284;18.860;2023-03-07T05:18:23;96730.40;;;0.56;75.99
62057;BME280;48016;50.284;18.860;2023-03-07T05:20:50;96732.84;;;0.53;75.82
62057;BME280;48016;50.284;18.860;2023-03-07T05:23:17;96729.17;;;0.49;75.99
62057;BME280;48016;50.284;18.860;2023-03-07T05:25:44;96733.40;;;0.46;75.89
62057;BME280;48016;50.284;18.860;2023-03-07T05:28:15;96731.12;;;0.42;76.01
62057;BME280;48016;50.284;18.860;2023-03-07T05:30:43;96731.48;;;0.39;75.97
62057;BME280;48016;50.284;18.860;2023-03-07T05:33:10;96730.04;;;0.38;75.89
62057;BME280;48016;50.284;18.860;2023-03-07T05:35:37;96728.81;;;0.40;76.15
62057;BME280;48016;50.284;18.860;2023-03-07T05:38:05;96731.48;;;0.40;75.90
62057;BME280;48016;50.284;18.860;2023-03-07T05:40:32;96731.75;;;0.39;76.14
62057;BME280;48016;50.284;18.860;2023-03-07T05:42:58;96728.80;;;0.38;75.92
62057;BME280;48016;50.284;18.860;2023-03-07T05:45:25;96732.21;;;0.38;76.02
62057;BME280;48016;50.284;18.860;2023-03-07T05:47:51;96732.09;;;0.37;75.96
62057;BME280;48016;50.284;18.860;2023-03-07T05:50:18;96735.15;;;0.38;75.96
62057;BME280;48016;50.284;18.860;2023-03-07T05:52:46;96732.44;;;0.39;75.96
62057;BME280;48016;50.284;18.860;2023-03-07T05:55:12;96731.72;;;0.40;76.03
62057;BME280;48016;50.284;18.860;2023-03-07T05:57:39;96729.56;;;0.42;75.98
62057;BME280;48016;50.284;18.860;2023-03-07T06:00:06;96726.66;;;0.48;76.08
62057;BME280;48016;50.284;18.860;2023-03-07T06:02:33;96728.95;;;0.53;76.04
62057;BME280;48016;50.284;18.860;2023-03-07T06:05:00;96731.56;;;0.58;76.07
62057;BME280;48016;50.284;18.860;2023-03-07T06:07:26;96729.40;;;0.63;75.88
62057;BME280;48016;50.284;18.860;2023-03-07T06:09:53;96725.95;;;0.69;75.95
62057;BME280;48016;50.284;18.860;2023-03-07T06:12:20;96725.02;;;0.75;75.71
62057;BME280;48016;50.284;18.860;2023-03-07T06:14:46;96724.84;;;0.82;75.61
62057;BME280;48016;50.284;18.860;2023-03-07T06:17:13;96725.40;;;0.93;75.63
62057;BME280;48016;50.284;18.860;2023-03-07T06:19:39;96727.91;;;1.03;75.43
62057;BME280;48016;50.284;18.860;2023-03-07T06:22:06;96725.63;;;1.15;75.41
62057;BME280;48016;50.284;18.860;2023-03-07T06:24:34;96723.73;;;1.28;75.28
62057;BME280;48016;50.284;18.860;2023-03-07T06:27:00;96725.83;;;1.40;75.03
62057;BME280;48016;50.284;18.860;2023-03-07T06:29:27;96722.48;;;1.51;74.54
62057;BME280;48016;50.284;18.860;2023-03-07T06:31:53;96720.39;;;1.63;74.31
62057;BME280;48016;50.284;18.860;2023-03-07T06:34:20;96722.73;;;1.77;74.12
62057;BME280;48016;50.284;18.860;2023-03-07T06:36:47;96720.92;;;1.91;73.70
62057;BME280;48016;50.284;18.860;2023-03-07T06:39:16;96721.16;;;2.07;73.79
62057;BME280;48016;50.284;18.860;2023-03-07T06:41:49;96721.88;;;2.29;73.28
62057;BME280;48016;50.284;18.860;2023-03-07T06:44:17;96719.44;;;2.50;73.13
62057;BME280;48016;50.284;18.860;2023-03-07T06:46:44;96716.73;;;2.70;72.69
62057;BME280;48016;50.284;18.860;2023-03-07T06:49:11;96717.27;;;2.89;72.57
62057;BME280;48016;50.284;18.860;2023-03-07T06:51:38;96713.84;;;3.05;72.06
62057;BME280;48016;50.284;18.860;2023-03-07T06:54:04;96718.64;;;3.26;71.91
62057;BME280;48016;50.284;18.860;2023-03-07T06:56:31;96713.27;;;3.42;71.51
62057;BME280;48016;50.284;18.860;2023-03-07T06:58:59;96710.30;;;3.58;71.14
62057;BME280;48016;50.284;18.860;2023-03-07T07:01:26;96713.81;;;3.74;70.92
62057;BME280;48016;50.284;18.860;2023-03-07T07:03:53;96708.67;;;3.92;70.67
62057;BME280;48016;50.284;18.860;2023-03-07T07:06:19;96707.46;;;4.11;70.48
62057;BME280;48016;50.284;18.860;2023-03-07T07:08:46;96702.73;;;4.25;70.19
62057;BME280;48016;50.284;18.860;2023-03-07T07:11:12;96697.35;;;4.39;69.78
62057;BME280;48016;50.284;18.860;2023-03-07T07:13:39;96700.05;;;4.48;69.36
62057;BME280;48016;50.284;18.860;2023-03-07T07:16:07;96701.89;;;4.51;68.57
62057;BME280;48016;50.284;18.860;2023-03-07T07:18:34;96697.67;;;4.59;68.53
62057;BME280;48016;50.284;18.860;2023-03-07T07:21:01;96699.06;;;4.73;68.52
62057;BME280;48016;50.284;18.860;2023-03-07T07:23:27;96699.08;;;4.88;67.89
62057;BME280;48016;50.284;18.860;2023-03-07T07:25:54;96699.96;;;4.96;67.52
62057;BME280;48016;50.284;18.860;2023-03-07T07:28:21;96702.48;;;4.95;66.93
62057;BME280;48016;50.284;18.860;2023-03-07T07:30:48;96700.17;;;4.92;66.77
62057;BME280;48016;50.284;18.860;2023-03-07T07:33:15;96702.23;;;4.89;66.68
62057;BME280;48016;50.284;18.860;2023-03-07T07:35:42;96703.59;;;4.84;66.04
62057;BME280;48016;50.284;18.860;2023-03-07T07:38:09;96699.96;;;4.77;66.34
62057;BME280;48016;50.284;18.860;2023-03-07T07:40:36;96696.52;;;4.68;66.39
62057;BME280;48016;50.284;18.860;2023-03-07T07:43:02;96699.13;;;4.54;66.15
62057;BME280;48016;50.284;18.860;2023-03-07T07:45:29;96702.38;;;4.39;65.90
62057;BME280;48016;50.284;18.860;2023-03-07T07:47:56;96697.96;;;4.25;66.06
62057;BME280;48016;50.284;18.860;2023-03-07T07:50:22;96699.56;;;4.18;66.13
62057;BME280;48016;50.284;18.860;2023-03-07T07:52:52;96698.75;;;4.12;66.37
62057;BME280;48016;50.284;18.860;2023-03-07T07:55:19;96696.16;;;4.10;66.34
62057;BME280;48016;50.284;18.860;2023-03-07T07:57:46;96694.68;;;4.12;66.58
62057;BME280;48016;50.284;18.860;2023-03-07T08:00:13;96689.88;;;4.13;66.52
62057;BME280;48016;50.284;18.860;2023-03-07T08:02:44;96683.84;;;4.19;66.69
62057;BME280;48016;50.284;18.860;2023-03-07T08:05:11;96678.88;;;4.25;66.64
62057;BME280;48016;50.284;18.860;2023-03-07T08:07:38;96673.92;;;4.34;66.52
62057;BME280;48016;50.284;18.860;2023-03-07T08:10:05;96670.42;;;4.44;66.37
62057;BME280;48016;50.284;18.860;2023-03-07T08:12:32;96671.67;;;4.53;65.86
62057;BME280;48016;50.284;18.860;2023-03-07T08:14:58;96670.09;;;4.57;65.68
62057;BME280;48016;50.284;18.860;2023-03-07T08:17:25;96666.15;;;4.61;65.59
62057;BME280;48016;50.284;18.860;2023-03-07T08:19:51;96664.21;;;4.59;65.49
62057;BME280;48016;50.284;18.860;2023-03-07T08:22:18;96668.50;;;4.60;65.57
62057;BME280;48016;50.284;18.860;2023-03-07T08:24:45;96666.73;;;4.65;65.62
62057;BME280;48016;50.284;18.860;2023-03-07T08:27:12;96664.52;;;4.72;65.49
62057;BME280;48016;50.284;18.860;2023-03-07T08:29:38;96663.09;;;4.74;65.21
62057;BME280;48016;50.284;18.860;2023-03-07T08:32:05;96659.03;;;4.82;65.40
62057;BME280;48016;50.284;18.860;2023-03-07T08:34:32;96654.98;;;4.96;65.36
62057;BME280;48016;50.284;18.860;2023-03-07T08:36:59;96661.31;;;5.15;65.17
62057;BME280;48016;50.284;18.860;2023-03-07T08:39:25;96661.00;;;5.29;64.95
62057;BME280;48016;50.284;18.860;2023-03-07T08:41:52;96657.77;;;5.37;64.13
62057;BME280;48016;50.284;18.860;2023-03-07T08:44:20;96663.40;;;5.37;63.74
62057;BME280;48016;50.284;18.860;2023-03-07T08:46:47;96650.70;;;5.42;63.75
62057;BME280;48016;50.284;18.860;2023-03-07T08:49:13;96664.99;;;5.48;63.57
62057;BME280;48016;50.284;18.860;2023-03-07T08:51:40;96662.52;;;5.59;63.67
62057;BME280;48016;50.284;18.860;2023-03-07T08:54:06;96660.67;;;5.66;63.38
62057;BME280;48016;50.284;18.860;2023-03-07T08:56:33;96662.02;;;5.68;63.20
62057;BME280;48016;50.284;18.860;2023-03-07T08:59:00;96660.88;;;5.67;63.02
62057;BME280;48016;50.284;18.860;2023-03-07T09:01:26;96657.73;;;5.71;63.09
62057;BME280;48016;50.284;18.860;2023-03-07T09:03:53;96656.14;;;5.79;63.22
62057;BME280;48016;50.284;18.860;2023-03-07T09:06:20;96655.41;;;5.84;62.78
62057;BME280;48016;50.284;18.860;2023-03-07T09:08:47;96656.75;;;5.84;62.58
62057;BME280;48016;50.284;18.860;2023-03-07T09:11:15;96655.09;;;5.86;62.60
62057;BME280;48016;50.284;18.860;2023-03-07T09:13:43;96650.16;;;5.88;62.60
62057;BME280;48016;50.284;18.860;2023-03-07T09:16:09;96646.77;;;5.83;62.15
62057;BME280;48016;50.284;18.860;2023-03-07T09:18:36;96648.42;;;5.79;62.28
62057;BME280;48016;50.284;18.860;2023-03-07T09:21:04;96645.69;;;5.79;62.21
62057;BME280;48016;50.284;18.860;2023-03-07T09:23:31;96640.17;;;5.81;62.16
62057;BME280;48016;50.284;18.860;2023-03-07T09:26:01;96631.33;;;5.85;61.80
62057;BME280;48016;50.284;18.860;2023-03-07T09:28:29;96631.50;;;5.90;61.81
62057;BME280;48016;50.284;18.860;2023-03-07T09:30:56;96628.34;;;5.93;61.47
62057;BME280;48016;50.284;18.860;2023-03-07T09:33:23;96626.00;;;5.93;61.24
62057;BME280;48016;50.284;18.860;2023-03-07T09:35:49;96619.52;;;5.96;60.92
62057;BME280;48016;50.284;18.860;2023-03-07T09:38:16;96624.09;;;6.00;60.90
62057;BME280;48016;50.284;18.860;2023-03-07T09:40:46;96619.48;;;6.05;60.54
62057;BME280;48016;50.284;18.860;2023-03-07T09:43:25;96619.36;;;6.02;59.72
62057;BME280;48016;50.284;18.860;2023-03-07T09:45:59;96613.19;;;5.97;59.92
62057;BME280;48016;50.284;18.860;2023-03-07T09:48:40;96611.56;;;5.93;59.85
62057;BME280;48016;50.284;18.860;2023-03-07T09:51:37;96606.77;;;5.83;58.80
62057;BME280;48016;50.284;18.860;2023-03-07T09:54:18;96611.14;;;5.75;58.83
62057;BME280;48016;50.284;18.860;2023-03-07T09:56:57;96599.67;;;5.80;58.81
62057;BME280;48016;50.284;18.860;2023-03-07T09:59:35;96604.89;;;5.91;58.60
62057;BME280;48016;50.284;18.860;2023-03-07T10:02:22;96594.52;;;5.99;58.38
62057;BME280;48016;50.284;18.860;2023-03-07T10:07:23;96590.23;;;6.17;57.95
62057;BME280;48016;50.284;18.860;2023-03-07T10:09:55;96584.45;;;6.26;57.45
62057;BME280;48016;50.284;18.860;2023-03-07T10:12:34;96576.13;;;6.33;57.02
62057;BME280;48016;50.284;18.860;2023-03-07T10:24:01;96573.14;;;6.60;55.44
62057;BME280;48016;50.284;18.860;2023-03-07T10:29:18;96566.88;;;6.75;53.87
62057;BME280;48016;50.284;18.860;2023-03-07T10:31:54;96564.54;;;6.79;53.92
62057;BME280;48016;50.284;18.860;2023-03-07T10:34:27;96563.36;;;6.82;53.67
62057;BME280;48016;50.284;18.860;2023-03-07T10:42:12;96559.55;;;6.86;53.43
62057;BME280;48016;50.284;18.860;2023-03-07T10:44:40;96553.83;;;6.88;53.16
62057;BME280;48016;50.284;18.860;2023-03-07T10:47:13;96560.45;;;6.88;52.42
62057;BME280;48016;50.284;18.860;2023-03-07T10:49:45;96559.48;;;6.86;52.64
62057;BME280;48016;50.284;18.860;2023-03-07T10:52:38;96548.74;;;6.86;51.76
62057;BME280;48016;50.284;18.860;2023-03-07T11:00:42;96544.54;;;7.04;52.59
62057;BME280;48016;50.284;18.860;2023-03-07T11:03:26;96536.29;;;7.11;52.34
62057;BME280;48016;50.284;18.860;2023-03-07T11:05:55;96538.70;;;7.15;51.95
62057;BME280;48016;50.284;18.860;2023-03-07T11:08:30;96538.02;;;7.09;52.14
62057;BME280;48016;50.284;18.860;2023-03-07T11:11:01;96538.14;;;7.05;52.24
62057;BME280;48016;50.284;18.860;2023-03-07T11:13:30;96541.23;;;7.03;52.54
62057;BME280;48016;50.284;18.860;2023-03-07T11:16:19;96534.23;;;7.04;52.40
62057;BME280;48016;50.284;18.860;2023-03-07T11:18:47;96535.11;;;6.95;52.09
62057;BME280;48016;50.284;18.860;2023-03-07T11:24:04;96530.41;;;6.88;51.99
62057;BME280;48016;50.284;18.860;2023-03-07T11:26:35;96525.48;;;6.87;52.17
62057;BME280;48016;50.284;18.860;2023-03-07T11:29:08;96527.14;;;6.88;52.24
62057;BME280;48016;50.284;18.860;2023-03-07T11:34:29;96529.73;;;6.87;52.16
62057;BME280;48016;50.284;18.860;2023-03-07T11:37:27;96528.43;;;7.01;52.35
62057;BME280;48016;50.284;18.860;2023-03-07T11:43:38;96521.96;;;7.18;52.19
62057;BME280;48016;50.284;18.860;2023-03-07T11:56:49;96497.83;;;7.44;51.76
62057;BME280;48016;50.284;18.860;2023-03-07T12:04:52;96495.48;;;7.26;51.82
62057;BME280;48016;50.284;18.860;2023-03-07T12:12:55;96499.80;;;7.09;51.73
62057;BME280;48016;50.284;18.860;2023-03-07T12:23:22;96488.89;;;6.99;52.08
62057;BME280;48016;50.284;18.860;2023-03-07T12:25:54;96487.94;;;6.95;52.13
62057;BME280;48016;50.284;18.860;2023-03-07T12:28:54;96484.98;;;6.97;52.43
62057;BME280;48016;50.284;18.860;2023-03-07T12:31:28;96485.67;;;7.07;52.57
62057;BME280;48016;50.284;18.860;2023-03-07T12:37:03;96483.52;;;7.19;52.60
62057;BME280;48016;50.284;18.860;2023-03-07T12:39:51;96472.20;;;7.27;52.50
62057;BME280;48016;50.284;18.860;2023-03-07T12:42:43;96462.42;;;7.32;52.28
62057;BME280;48016;50.284;18.860;2023-03-07T12:45:21;96464.52;;;7.33;52.28
62057;BME280;48016;50.284;18.860;2023-03-07T12:48:21;96476.83;;;7.34;52.40
62057;BME280;48016;50.284;18.860;2023-03-07T12:58:49;96454.77;;;7.36;51.82
62057;BME280;48016;50.284;18.860;2023-03-07T13:01:24;96453.48;;;7.25;51.84
62057;BME280;48016;50.284;18.860;2023-03-07T13:06:37;96460.37;;;7.16;51.82
62057;BME280;48016;50.284;18.860;2023-03-07T13:09:21;96455.29;;;7.12;51.67
62057;BME280;48016;50.284;18.860;2023-03-07T13:19:53;96449.61;;;7.00;51.36
62057;BME280;48016;50.284;18.860;2023-03-07T13:24:53;96456.15;;;6.93;51.64
62057;BME280;48016;50.284;18.860;2023-03-07T13:27:59;96454.44;;;6.92;51.67
62057;BME280;48016;50.284;18.860;2023-03-07T13:30:29;96449.09;;;6.87;51.69
62057;BME280;48016;50.284;18.860;2023-03-07T13:33:01;96449.48;;;6.85;51.74
62057;BME280;48016;50.284;18.860;2023-03-07T13:45:55;96452.66;;;6.68;51.64
62057;BME280;48016;50.284;18.860;2023-03-07T13:53:48;96445.22;;;6.59;52.16
62057;BME280;48016;50.284;18.860;2023-03-07T14:01:26;96427.49;;;6.60;52.67
62057;BME280;48016;50.284;18.860;2023-03-07T14:04:10;96417.41;;;6.60;52.65
62057;BME280;48016;50.284;18.860;2023-03-07T14:06:46;96409.87;;;6.53;52.46
62057;BME280;48016;50.284;18.860;2023-03-07T14:09:17;96416.83;;;6.45;52.67
62057;BME280;48016;50.284;18.860;2023-03-07T14:20:27;96401.61;;;6.36;53.08
62057;BME280;48016;50.284;18.860;2023-03-07T14:26:38;96394.84;;;6.39;53.30
62057;BME280;48016;50.284;18.860;2023-03-07T14:29:19;96385.96;;;6.41;53.32
62057;BME280;48016;50.284;18.860;2023-03-07T14:31:53;96384.89;;;6.40;53.15
62057;BME280;48016;50.284;18.860;2023-03-07T14:37:04;96382.92;;;6.36;53.25
62057;BME280;48016;50.284;18.860;2023-03-07T14:46:10;96388.89;;;6.31;53.45
62057;BME280;48016;50.284;18.860;2023-03-07T14:51:11;96384.55;;;6.34;53.54
62057;BME280;48016;50.284;18.860;2023-03-07T14:53:39;96378.00;;;6.37;53.47
62057;BME280;48016;50.284;18.860;2023-03-07T14:56:08;96378.25;;;6.38;53.26
62057;BME280;48016;50.284;18.860;2023-03-07T14:58:44;96380.13;;;6.37;53.08
62057;BME280;48016;50.284;18.860;2023-03-07T15:01:14;96377.34;;;6.35;53.36
62057;BME280;48016;50.284;18.860;2023-03-07T15:03:48;96378.51;;;6.39;53.30
62057;BME280;48016;50.284;18.860;2023-03-07T15:06:19;96378.19;;;6.40;53.40
62057;BME280;48016;50.284;18.860;2023-03-07T15:08:46;96378.94;;;6.42;53.39
62057;BME280;48016;50.284;18.860;2023-03-07T15:11:36;96374.91;;;6.43;53.34
62057;BME280;48016;50.284;18.860;2023-03-07T15:14:06;96367.77;;;6.39;53.00
62057;BME280;48016;50.284;18.860;2023-03-07T15:16:43;96380.64;;;6.30;53.05
62057;BME280;48016;50.284;18.860;2023-03-07T15:22:17;96374.66;;;6.20;53.63
62057;BME280;48016;50.284;18.860;2023-03-07T15:24:47;96371.89;;;6.17;53.80
62057;BME280;48016;50.284;18.860;2023-03-07T15:27:23;96370.33;;;6.14;53.88
62057;BME280;48016;50.284;18.860;2023-03-07T15:29:51;96369.80;;;6.11;54.01
62057;BME280;48016;50.284;18.860;2023-03-07T15:32:38;96365.85;;;6.07;54.15
62057;BME280;48016;50.284;18.860;2023-03-07T15:37:49;96363.41;;;5.92;54.32
62057;BME280;48016;50.284;18.860;2023-03-07T15:42:51;96367.39;;;5.75;54.65
62057;BME280;48016;50.284;18.860;2023-03-07T15:45:30;96361.19;;;5.67;54.77